createdAt,value
2018-12-20T00:00:54.166Z,79.61
2018-12-20T00:01:52.353Z,79.23
2018-12-20T00:02:52.441Z,80.37
2018-12-20T00:03:56.100Z,80.08
2018-12-20T00:04:53.766Z,80.46
2018-12-20T00:05:55.565Z,80.56
2018-12-20T00:07:00.037Z,80.65
2018-12-20T00:07:57.184Z,80.08
2018-12-20T00:08:57.088Z,79.42
2018-12-20T00:09:55.109Z,79.04
2018-12-20T00:10:53.813Z,78.66
2018-12-20T00:11:54.934Z,78.09
2018-12-20T00:12:55.649Z,78.09
2018-12-20T00:13:55.300Z,76.39
2018-12-20T00:14:56.096Z,76.67
2018-12-20T00:15:58.091Z,76.67
2018-12-20T00:16:56.704Z,77.24
2018-12-20T00:17:54.814Z,78.09
2018-12-20T00:18:55.088Z,78.56
2018-12-20T00:19:56.259Z,78.85
2018-12-20T00:20:55.363Z,78.66
2018-12-20T00:21:55.672Z,78.19
2018-12-20T00:22:57.685Z,77.71
2018-12-20T00:23:55.990Z,78.00
2018-12-20T00:24:56.255Z,78.00
2018-12-20T00:25:57.406Z,79.04
2018-12-20T00:26:57.704Z,78.56
2018-12-20T00:27:56.804Z,78.66
2018-12-20T00:28:57.156Z,78.85
2018-12-20T00:30:05.213Z,78.19
2018-12-20T00:31:13.595Z,78.28
2018-12-20T00:31:58.488Z,77.52
2018-12-20T00:32:59.637Z,77.62
2018-12-20T00:33:58.912Z,76.86
2018-12-20T00:34:59.681Z,76.76
2018-12-20T00:35:58.289Z,76.20
2018-12-20T00:36:58.419Z,77.14
2018-12-20T00:38:00.241Z,77.33
2018-12-20T00:39:00.667Z,77.05
2018-12-20T00:40:06.460Z,77.90
2018-12-20T00:41:02.611Z,77.43
2018-12-20T00:42:00.067Z,78.09
2018-12-20T00:43:00.319Z,78.00
2018-12-20T00:43:59.415Z,78.00
2018-12-20T00:45:01.748Z,78.00
2018-12-20T00:45:59.849Z,78.00
2018-12-20T00:47:01.720Z,78.09
2018-12-20T00:48:03.727Z,76.67
2018-12-20T00:49:02.094Z,75.05
2018-12-20T00:50:00.463Z,74.49
2018-12-20T00:51:00.767Z,74.20
2018-12-20T00:52:04.624Z,74.39
2018-12-20T00:53:01.072Z,74.77
2018-12-20T00:54:01.305Z,76.57
2018-12-20T00:55:03.305Z,77.14
2018-12-20T00:56:02.684Z,77.43
2018-12-20T00:57:03.590Z,78.66
2018-12-20T00:58:02.129Z,78.47
2018-12-20T00:59:02.264Z,78.00
2018-12-20T01:00:02.550Z,77.52
2018-12-20T01:01:03.710Z,76.76
2018-12-20T01:02:02.958Z,74.87
2018-12-20T01:03:09.636Z,74.96
2018-12-20T01:04:07.090Z,75.91
2018-12-20T01:05:03.325Z,75.91
2018-12-20T01:06:04.553Z,76.29
2018-12-20T01:07:05.726Z,76.76
2018-12-20T01:08:05.596Z,77.52
2018-12-20T01:09:05.599Z,76.76
2018-12-20T01:10:08.091Z,77.24
2018-12-20T01:11:04.316Z,77.81
2018-12-20T01:12:08.136Z,78.19
2018-12-20T01:13:04.722Z,77.14
2018-12-20T01:14:04.899Z,77.43
2018-12-20T01:15:05.162Z,78.19
2018-12-20T01:16:07.110Z,78.09
2018-12-20T01:17:07.100Z,78.00
2018-12-20T01:18:07.094Z,78.09
2018-12-20T01:19:09.613Z,78.56
2018-12-20T01:20:07.736Z,79.52
2018-12-20T01:21:09.689Z,79.80
2018-12-20T01:22:06.159Z,79.52
2018-12-20T01:23:06.395Z,79.80
2018-12-20T01:24:08.141Z,79.71
2018-12-20T01:25:14.592Z,79.71
2018-12-20T01:26:08.608Z,79.33
2018-12-20T01:27:08.107Z,79.52
2018-12-20T01:28:07.331Z,79.23
2018-12-20T01:29:07.546Z,79.61
2018-12-20T01:30:07.628Z,79.52
2018-12-20T01:31:07.840Z,80.08
2018-12-20T01:32:08.046Z,80.65
2018-12-20T01:33:08.377Z,80.37
2018-12-20T01:34:08.537Z,80.56
2018-12-20T01:35:11.700Z,81.23
2018-12-20T01:36:10.796Z,81.04
2018-12-20T01:37:10.078Z,81.41
2018-12-20T01:38:09.197Z,81.41
2018-12-20T01:39:09.332Z,81.79
2018-12-20T01:40:11.165Z,81.51
2018-12-20T01:41:13.211Z,81.98
2018-12-20T01:42:10.703Z,82.31
2018-12-20T01:43:10.049Z,82.65
2018-12-20T01:44:14.277Z,82.59
2018-12-20T01:45:12.153Z,82.84
2018-12-20T01:46:12.229Z,83.22
2018-12-20T01:47:10.791Z,84.01
2018-12-20T01:48:11.076Z,85.02
2018-12-20T01:49:11.115Z,85.11
2018-12-20T01:50:11.335Z,85.49
2018-12-20T01:51:12.717Z,85.06
2018-12-20T01:52:13.677Z,85.82
2018-12-20T01:53:13.639Z,85.53
2018-12-20T01:54:12.097Z,85.63
2018-12-20T01:55:14.262Z,85.63
2018-12-20T01:56:12.579Z,86.30
2018-12-20T01:57:12.672Z,86.30
2018-12-20T01:58:16.598Z,86.11
2018-12-20T01:59:13.225Z,86.68
2018-12-20T02:00:13.377Z,87.05
2018-12-20T02:01:15.271Z,86.77
2018-12-20T02:02:15.627Z,86.54
2018-12-20T02:03:13.961Z,86.72
2018-12-20T02:04:15.719Z,86.96
2018-12-20T02:05:14.112Z,86.77
2018-12-20T02:06:16.090Z,86.01
2018-12-20T02:07:16.199Z,85.82
2018-12-20T02:08:16.091Z,85.59
2018-12-20T02:09:18.614Z,85.06
2018-12-20T02:10:20.682Z,85.72
2018-12-20T02:11:16.604Z,85.63
2018-12-20T02:12:16.193Z,85.44
2018-12-20T02:13:17.268Z,85.49
2018-12-20T02:14:15.600Z,85.44
2018-12-20T02:15:17.617Z,85.72
2018-12-20T02:16:17.649Z,85.59
2018-12-20T02:17:18.123Z,85.16
2018-12-20T02:18:20.135Z,86.01
2018-12-20T02:19:16.451Z,85.53
2018-12-20T02:20:16.709Z,86.01
2018-12-20T02:21:16.858Z,85.82
2018-12-20T02:22:17.005Z,85.44
2018-12-20T02:23:19.376Z,85.91
2018-12-20T02:24:19.156Z,86.11
2018-12-20T02:25:19.602Z,86.30
2018-12-20T02:26:21.696Z,86.77
2018-12-20T02:27:21.677Z,86.77
2018-12-20T02:28:40.335Z,86.01
2018-12-20T02:29:20.282Z,85.72
2018-12-20T02:30:21.229Z,85.53
2018-12-20T02:31:18.579Z,84.11
2018-12-20T02:32:18.845Z,84.30
2018-12-20T02:33:22.821Z,83.45
2018-12-20T02:34:21.255Z,83.16
2018-12-20T02:35:19.297Z,83.26
2018-12-20T02:36:19.522Z,82.03
2018-12-20T02:37:20.427Z,81.55
2018-12-20T02:38:27.463Z,80.98
2018-12-20T02:39:24.947Z,81.45
2018-12-20T02:40:22.020Z,81.23
2018-12-20T02:41:22.832Z,80.98
2018-12-20T02:42:22.450Z,81.26
2018-12-20T02:43:24.380Z,81.26
2018-12-20T02:44:26.799Z,81.07
2018-12-20T02:45:24.029Z,81.07
2018-12-20T02:46:23.110Z,81.74
2018-12-20T02:47:22.223Z,81.26
2018-12-20T02:48:24.686Z,81.26
2018-12-20T02:49:23.198Z,81.45
2018-12-20T02:50:39.026Z,80.60
2018-12-20T02:51:22.887Z,80.69
2018-12-20T02:52:23.288Z,80.88
2018-12-20T02:53:31.188Z,80.69
2018-12-20T02:54:25.297Z,79.17
2018-12-20T02:55:28.971Z,78.61
2018-12-20T02:56:26.229Z,77.52
2018-12-20T02:57:26.341Z,76.90
2018-12-20T02:58:39.902Z,78.99
2018-12-20T02:59:25.126Z,77.81
2018-12-20T03:00:25.149Z,77.43
2018-12-20T03:01:30.605Z,74.96
2018-12-20T03:02:25.602Z,74.01
2018-12-20T03:03:39.747Z,73.82
2018-12-20T03:04:24.279Z,72.97
2018-12-20T03:05:25.472Z,73.16
2018-12-20T03:06:28.119Z,72.68
2018-12-20T03:07:26.599Z,73.07
2018-12-20T03:08:26.769Z,73.07
2018-12-20T03:09:27.055Z,73.82
2018-12-20T03:10:29.094Z,74.01
2018-12-20T03:11:27.357Z,74.49
2018-12-20T03:12:25.595Z,74.01
2018-12-20T03:13:29.777Z,73.92
2018-12-20T03:14:27.633Z,74.71
2018-12-20T03:15:27.369Z,73.92
2018-12-20T03:16:26.403Z,74.58
2018-12-20T03:17:26.417Z,74.20
2018-12-20T03:18:29.143Z,75.19
2018-12-20T03:19:28.596Z,74.71
2018-12-20T03:20:26.895Z,75.62
2018-12-20T03:21:27.002Z,75.62
2018-12-20T03:22:27.299Z,75.72
2018-12-20T03:23:28.399Z,75.43
2018-12-20T03:24:27.653Z,75.19
2018-12-20T03:25:27.783Z,74.87
2018-12-20T03:26:39.787Z,75.00
2018-12-20T03:27:29.654Z,75.15
2018-12-20T03:28:30.151Z,74.81
2018-12-20T03:29:29.650Z,74.87
2018-12-20T03:30:32.138Z,75.53
2018-12-20T03:31:30.624Z,75.43
2018-12-20T03:32:28.984Z,75.19
2018-12-20T03:33:31.110Z,75.53
2018-12-20T03:34:29.830Z,76.20
2018-12-20T03:35:33.330Z,76.01
2018-12-20T03:36:33.801Z,76.23
2018-12-20T03:37:31.625Z,76.67
2018-12-20T03:38:29.938Z,75.81
2018-12-20T03:39:32.183Z,75.81
2018-12-20T03:40:30.407Z,75.62
2018-12-20T03:41:36.108Z,74.96
2018-12-20T03:42:30.783Z,74.01
2018-12-20T03:43:30.877Z,74.11
2018-12-20T03:44:31.244Z,73.82
2018-12-20T03:45:33.156Z,73.72
2018-12-20T03:46:35.097Z,72.88
2018-12-20T03:47:34.610Z,73.16
2018-12-20T03:48:32.847Z,72.88
2018-12-20T03:49:35.597Z,72.97
2018-12-20T03:50:32.266Z,73.07
2018-12-20T03:51:32.223Z,73.07
2018-12-20T03:52:32.613Z,72.59
2018-12-20T03:53:34.149Z,72.49
2018-12-20T03:54:34.125Z,72.68
2018-12-20T03:55:34.737Z,72.49
2018-12-20T03:56:34.604Z,72.40
2018-12-20T03:57:35.097Z,72.02
2018-12-20T03:58:34.457Z,72.11
2018-12-20T03:59:33.579Z,71.92
2018-12-20T04:00:41.595Z,72.21
2018-12-20T04:01:33.856Z,72.49
2018-12-20T04:02:37.640Z,72.78
2018-12-20T04:03:34.406Z,72.68
2018-12-20T04:04:36.208Z,72.78
2018-12-20T04:05:34.733Z,73.19
2018-12-20T04:06:38.607Z,73.07
2018-12-20T04:07:50.614Z,72.68
2018-12-20T04:08:34.921Z,73.10
2018-12-20T04:09:37.160Z,73.19
2018-12-20T04:10:37.120Z,74.05
2018-12-20T04:11:35.520Z,74.90
2018-12-20T04:12:40.650Z,76.04
2018-12-20T04:13:37.690Z,75.95
2018-12-20T04:14:37.644Z,74.96
2018-12-20T04:15:40.457Z,75.05
2018-12-20T04:16:40.157Z,75.53
2018-12-20T04:17:38.143Z,75.53
2018-12-20T04:18:36.625Z,74.96
2018-12-20T04:19:36.812Z,74.11
2018-12-20T04:20:58.201Z,72.68
2018-12-20T04:21:37.142Z,71.92
2018-12-20T04:22:39.125Z,71.64
2018-12-20T04:23:37.716Z,71.64
2018-12-20T04:24:39.549Z,70.69
2018-12-20T04:25:39.376Z,69.84
2018-12-20T04:26:38.231Z,70.03
2018-12-20T04:27:38.550Z,70.03
2018-12-20T04:28:40.110Z,69.46
2018-12-20T04:29:38.735Z,68.23
2018-12-20T04:30:42.870Z,68.32
2018-12-20T04:31:39.105Z,68.60
2018-12-20T04:32:40.736Z,68.41
2018-12-20T04:33:40.548Z,68.60
2018-12-20T04:34:39.910Z,68.51
2018-12-20T04:35:39.850Z,68.23
2018-12-20T04:36:41.619Z,68.32
2018-12-20T04:37:41.114Z,68.70
2018-12-20T04:38:44.415Z,68.23
2018-12-20T04:39:42.153Z,68.60
2018-12-20T04:40:42.264Z,69.36
2018-12-20T04:41:41.695Z,69.74
2018-12-20T04:42:43.560Z,70.03
2018-12-20T04:43:42.669Z,70.63
2018-12-20T04:44:43.411Z,70.92
2018-12-20T04:45:46.642Z,69.84
2018-12-20T04:46:43.094Z,70.21
2018-12-20T04:47:41.784Z,69.84
2018-12-20T04:48:43.618Z,70.06
2018-12-20T04:49:41.958Z,70.73
2018-12-20T04:50:44.194Z,70.82
2018-12-20T04:51:43.347Z,70.73
2018-12-20T04:52:44.226Z,71.96
2018-12-20T04:53:48.903Z,71.39
2018-12-20T04:54:44.656Z,70.73
2018-12-20T04:55:44.099Z,71.30
2018-12-20T04:56:45.280Z,72.06
2018-12-20T04:57:43.500Z,72.53
2018-12-20T04:58:45.807Z,72.63
2018-12-20T04:59:43.846Z,73.00
2018-12-20T05:00:47.857Z,72.81
2018-12-20T05:01:46.099Z,73.19
2018-12-20T05:02:46.115Z,73.67
2018-12-20T05:03:46.310Z,73.76
2018-12-20T05:04:48.116Z,73.76
2018-12-20T05:05:46.743Z,72.91
2018-12-20T05:06:46.597Z,73.19
2018-12-20T05:07:46.612Z,73.19
2018-12-20T05:08:46.918Z,72.63
2018-12-20T05:09:49.191Z,72.06
2018-12-20T05:10:53.382Z,71.77
2018-12-20T05:11:48.266Z,71.58
2018-12-20T05:12:47.959Z,71.96
2018-12-20T05:13:47.600Z,71.86
2018-12-20T05:14:47.645Z,73.29
2018-12-20T05:15:46.168Z,72.81
2018-12-20T05:16:50.097Z,73.10
2018-12-20T05:17:46.495Z,73.38
2018-12-20T05:18:46.630Z,73.29
2018-12-20T05:19:50.648Z,72.91
2018-12-20T05:20:48.099Z,72.91
2018-12-20T05:21:48.400Z,73.29
2018-12-20T05:22:50.075Z,72.91
2018-12-20T05:23:49.291Z,72.44
2018-12-20T05:24:47.673Z,72.63
2018-12-20T05:25:47.955Z,72.15
2018-12-20T05:26:49.819Z,72.44
2018-12-20T05:27:48.323Z,72.44
2018-12-20T05:28:50.210Z,72.91
2018-12-20T05:29:49.201Z,73.00
2018-12-20T05:30:55.324Z,72.44
2018-12-20T05:31:48.744Z,72.63
2018-12-20T05:32:48.935Z,72.53
2018-12-20T05:33:49.335Z,72.44
2018-12-20T05:34:49.400Z,72.25
2018-12-20T05:35:51.135Z,72.72
2018-12-20T05:36:51.786Z,72.34
2018-12-20T05:37:49.929Z,72.72
2018-12-20T05:38:51.178Z,72.81
2018-12-20T05:39:54.161Z,71.96
2018-12-20T05:40:53.201Z,72.15
2018-12-20T05:41:51.765Z,72.34
2018-12-20T05:42:52.617Z,72.63
2018-12-20T05:43:51.160Z,72.25
2018-12-20T05:44:53.240Z,72.63
2018-12-20T05:45:52.338Z,73.29
2018-12-20T05:46:51.528Z,73.10
2018-12-20T05:47:51.621Z,72.53
2018-12-20T05:48:53.602Z,73.00
2018-12-20T05:49:55.729Z,73.38
2018-12-20T05:50:53.200Z,73.19
2018-12-20T05:51:52.590Z,73.57
2018-12-20T05:53:00.097Z,73.96
2018-12-20T05:53:56.693Z,74.33
2018-12-20T05:54:54.808Z,75.00
2018-12-20T05:55:54.207Z,74.81
2018-12-20T05:56:55.099Z,74.71
2018-12-20T05:57:54.688Z,74.81
2018-12-20T05:58:55.473Z,74.52
2018-12-20T05:59:55.612Z,74.33
2018-12-20T06:00:57.811Z,74.81
2018-12-20T06:01:54.186Z,75.09
2018-12-20T06:02:56.100Z,74.81
2018-12-20T06:03:54.884Z,74.71
2018-12-20T06:04:56.192Z,75.19
2018-12-20T06:05:56.305Z,75.09
2018-12-20T06:06:55.766Z,74.33
2018-12-20T06:07:56.618Z,73.96
2018-12-20T06:08:56.889Z,74.24
2018-12-20T06:09:56.243Z,74.43
2018-12-20T06:10:57.313Z,75.00
2018-12-20T06:11:55.675Z,74.71
2018-12-20T06:12:56.773Z,74.90
2018-12-20T06:13:59.680Z,74.15
2018-12-20T06:14:58.108Z,74.05
2018-12-20T06:15:56.469Z,73.67
2018-12-20T06:16:56.529Z,73.48
2018-12-20T06:17:56.756Z,73.76
2018-12-20T06:18:58.805Z,73.38
2018-12-20T06:20:00.738Z,73.38
2018-12-20T06:20:59.224Z,74.05
2018-12-20T06:22:02.074Z,73.67
2018-12-20T06:22:59.115Z,73.38
2018-12-20T06:24:00.627Z,73.38
2018-12-20T06:25:01.617Z,74.15
2018-12-20T06:25:59.651Z,73.76
2018-12-20T06:26:58.200Z,73.86
2018-12-20T06:28:06.108Z,73.48
2018-12-20T06:28:58.586Z,73.10
2018-12-20T06:29:59.697Z,72.72
2018-12-20T06:31:02.598Z,73.19
2018-12-20T06:32:02.596Z,73.10
2018-12-20T06:33:01.634Z,72.25
2018-12-20T06:34:01.134Z,72.63
2018-12-20T06:34:59.349Z,72.25
2018-12-20T06:35:59.585Z,72.34
2018-12-20T06:37:00.803Z,71.96
2018-12-20T06:38:00.035Z,72.53
2018-12-20T06:39:00.262Z,72.15
2018-12-20T06:40:00.465Z,70.92
2018-12-20T06:41:01.706Z,70.35
2018-12-20T06:42:04.638Z,70.25
2018-12-20T06:43:01.011Z,70.82
2018-12-20T06:44:07.233Z,70.92
2018-12-20T06:45:03.145Z,71.39
2018-12-20T06:46:03.154Z,71.48
2018-12-20T06:47:03.107Z,71.20
2018-12-20T06:48:02.691Z,70.92
2018-12-20T06:49:08.660Z,71.01
2018-12-20T06:50:05.134Z,70.63
2018-12-20T06:51:04.115Z,70.15
2018-12-20T06:52:02.470Z,69.11
2018-12-20T06:53:02.660Z,68.44
2018-12-20T06:55:36.980Z,68.44
2018-12-20T06:56:35.972Z,68.07
2018-12-20T06:57:36.982Z,68.16
2018-12-20T06:58:36.975Z,68.26
2018-12-20T06:59:38.444Z,67.69
2018-12-20T07:00:37.479Z,67.31
2018-12-20T07:01:36.932Z,67.59
2018-12-20T07:02:43.989Z,68.26
2018-12-20T07:03:36.319Z,67.97
2018-12-20T07:04:39.975Z,67.21
2018-12-20T07:05:36.569Z,67.02
2018-12-20T07:06:36.760Z,67.12
2018-12-20T07:07:36.977Z,67.69
2018-12-20T07:08:38.441Z,67.40
2018-12-20T07:09:44.048Z,67.50
2018-12-20T07:10:37.742Z,67.50
2018-12-20T07:11:39.494Z,67.12
2018-12-20T07:12:39.487Z,66.55
2018-12-20T07:13:39.982Z,66.74
2018-12-20T07:14:41.041Z,67.31
2018-12-20T07:15:42.034Z,67.02
2018-12-20T07:16:42.479Z,66.93
2018-12-20T07:17:38.686Z,66.83
2018-12-20T07:18:40.478Z,66.83
2018-12-20T07:19:40.979Z,67.79
2018-12-20T07:20:39.222Z,67.69
2018-12-20T07:21:39.324Z,67.79
2018-12-20T07:22:40.576Z,68.07
2018-12-20T07:23:45.694Z,67.97
2018-12-20T07:24:39.971Z,67.69
2018-12-20T07:25:41.987Z,67.97
2018-12-20T07:26:40.250Z,67.97
2018-12-20T07:27:42.034Z,67.97
2018-12-20T07:28:42.504Z,67.59
2018-12-20T07:29:40.835Z,67.69
2018-12-20T07:30:41.044Z,67.31
2018-12-20T07:31:42.978Z,67.40
2018-12-20T07:32:43.000Z,67.31
2018-12-20T07:33:43.495Z,67.50
2018-12-20T07:34:47.935Z,67.31
2018-12-20T07:35:41.970Z,67.21
2018-12-20T07:36:50.010Z,67.02
2018-12-20T07:37:49.938Z,66.27
2018-12-20T07:38:42.410Z,66.36
2018-12-20T07:39:50.507Z,66.36
2018-12-20T07:40:42.865Z,66.36
2018-12-20T07:41:42.960Z,66.46
2018-12-20T07:42:44.991Z,66.74
2018-12-20T07:43:46.992Z,66.55
2018-12-20T07:44:43.449Z,66.55
2018-12-20T07:45:44.703Z,67.50
2018-12-20T07:46:45.479Z,67.21
2018-12-20T07:47:47.501Z,67.69
2018-12-20T07:48:44.067Z,67.02
2018-12-20T07:49:46.039Z,66.83
2018-12-20T07:50:45.978Z,66.46
2018-12-20T07:51:46.520Z,66.55
2018-12-20T07:52:46.517Z,66.55
2018-12-20T07:53:44.991Z,66.74
2018-12-20T07:54:46.990Z,66.74
2018-12-20T07:55:46.997Z,67.40
2018-12-20T07:56:45.345Z,67.31
2018-12-20T07:57:47.482Z,67.31
2018-12-20T07:58:45.736Z,67.40
2018-12-20T07:59:47.479Z,67.69
2018-12-20T08:00:49.984Z,67.59
2018-12-20T08:01:46.327Z,68.35
2018-12-20T08:02:48.498Z,68.35
2018-12-20T08:03:49.526Z,68.35
2018-12-20T08:04:50.490Z,68.54
2018-12-20T08:05:48.093Z,68.54
2018-12-20T08:06:49.003Z,68.44
2018-12-20T08:07:50.983Z,68.92
2018-12-20T08:08:48.474Z,69.21
2018-12-20T08:09:48.710Z,68.83
2018-12-20T08:10:47.921Z,69.40
2018-12-20T08:11:49.137Z,69.11
2018-12-20T08:12:49.588Z,68.64
2018-12-20T08:13:50.509Z,69.11
2018-12-20T08:14:50.491Z,68.64
2018-12-20T08:15:50.713Z,68.07
2018-12-20T08:16:51.028Z,67.59
2018-12-20T08:17:52.979Z,67.02
2018-12-20T08:18:51.557Z,67.12
2018-12-20T08:19:50.781Z,66.93
2018-12-20T08:20:53.483Z,68.07
2018-12-20T08:21:50.188Z,67.40
2018-12-20T08:22:51.989Z,66.64
2018-12-20T08:23:56.559Z,66.83
2018-12-20T08:24:50.808Z,65.79
2018-12-20T08:25:53.036Z,65.31
2018-12-20T08:26:52.978Z,64.94
2018-12-20T08:27:51.443Z,65.79
2018-12-20T08:28:51.664Z,65.60
2018-12-20T08:29:53.480Z,65.60
2018-12-20T08:30:54.047Z,66.83
2018-12-20T08:31:59.978Z,66.55
2018-12-20T08:32:52.445Z,66.08
2018-12-20T08:33:52.656Z,65.98
2018-12-20T08:34:52.866Z,65.88
2018-12-20T08:35:55.028Z,65.88
2018-12-20T08:36:57.708Z,66.64
2018-12-20T08:37:54.984Z,68.44
2018-12-20T08:38:53.567Z,68.35
2018-12-20T08:39:53.782Z,68.92
2018-12-20T08:40:54.016Z,69.49
2018-12-20T08:41:54.104Z,69.21
2018-12-20T08:42:54.315Z,68.07
2018-12-20T08:43:58.477Z,68.35
2018-12-20T08:44:56.502Z,69.30
2018-12-20T08:45:56.485Z,69.21
2018-12-20T08:46:55.066Z,69.30
2018-12-20T08:47:56.983Z,68.64
2018-12-20T08:48:57.030Z,67.59
2018-12-20T08:49:56.625Z,68.07
2018-12-20T08:50:56.841Z,68.19
2018-12-20T08:52:01.064Z,68.19
2018-12-20T08:52:57.645Z,67.63
2018-12-20T08:53:57.995Z,68.29
2018-12-20T08:54:57.574Z,67.91
2018-12-20T08:55:56.808Z,68.67
2018-12-20T08:56:56.914Z,69.24
2018-12-20T08:57:57.117Z,69.34
2018-12-20T08:58:57.338Z,69.34
2018-12-20T08:59:58.548Z,69.71
2018-12-20T09:00:57.754Z,69.34
2018-12-20T09:01:59.489Z,71.33
2018-12-20T09:03:01.987Z,71.81
2018-12-20T09:03:59.978Z,71.04
2018-12-20T09:04:58.492Z,70.19
2018-12-20T09:05:58.707Z,69.91
2018-12-20T09:07:00.483Z,69.71
2018-12-20T09:07:58.978Z,70.95
2018-12-20T09:08:59.157Z,72.09
2018-12-20T09:09:59.366Z,71.14
2018-12-20T09:10:59.564Z,70.48
2018-12-20T09:11:59.784Z,70.57
2018-12-20T09:13:09.528Z,69.91
2018-12-20T09:14:02.945Z,69.71
2018-12-20T09:15:00.285Z,71.14
2018-12-20T09:16:06.990Z,69.81
2018-12-20T09:17:03.122Z,68.48
2018-12-20T09:18:01.921Z,68.39
2018-12-20T09:19:04.018Z,68.01
2018-12-20T09:20:02.988Z,67.44
2018-12-20T09:21:04.978Z,67.44
2018-12-20T09:22:02.600Z,67.15
2018-12-20T09:23:01.683Z,66.96
2018-12-20T09:24:01.904Z,66.77
2018-12-20T09:25:03.986Z,67.06
2018-12-20T09:26:02.311Z,67.25
2018-12-20T09:27:04.526Z,67.44
2018-12-20T09:28:04.490Z,67.44
2018-12-20T09:29:04.504Z,67.34
2018-12-20T09:30:02.969Z,67.15
2018-12-20T09:31:03.181Z,67.63
2018-12-20T09:32:03.415Z,67.72
2018-12-20T09:33:03.635Z,68.29
2018-12-20T09:34:05.477Z,67.63
2018-12-20T09:35:05.484Z,67.44
2018-12-20T09:36:04.078Z,68.10
2018-12-20T09:37:04.176Z,67.25
2018-12-20T09:38:04.378Z,66.01
2018-12-20T09:39:04.820Z,64.87
2018-12-20T09:40:04.798Z,64.02
2018-12-20T09:41:05.037Z,64.21
2018-12-20T09:42:06.987Z,64.21
2018-12-20T09:43:12.113Z,63.92
2018-12-20T09:44:07.095Z,62.59
2018-12-20T09:45:07.601Z,60.69
2018-12-20T09:46:07.498Z,59.84
2018-12-20T09:47:11.723Z,59.55
2018-12-20T09:48:06.045Z,59.46
2018-12-20T09:49:06.263Z,59.36
2018-12-20T09:50:07.547Z,58.89
2018-12-20T09:51:10.548Z,58.61
2018-12-20T09:52:08.574Z,59.46
2018-12-20T09:53:08.986Z,60.31
2018-12-20T09:54:08.989Z,61.26
2018-12-20T09:55:08.980Z,62.12
2018-12-20T09:56:09.097Z,62.59
2018-12-20T09:57:07.616Z,62.69
2018-12-20T09:58:07.754Z,63.17
2018-12-20T09:59:09.498Z,63.07
2018-12-20T10:00:09.995Z,63.92
2018-12-20T10:01:10.026Z,64.30
2018-12-20T10:02:08.320Z,64.87
2018-12-20T10:03:10.485Z,64.78
2018-12-20T10:04:08.691Z,64.59
2018-12-20T10:05:10.492Z,63.86
2018-12-20T10:06:09.078Z,65.73
2018-12-20T10:07:11.012Z,66.61
2018-12-20T10:08:09.481Z,67.57
2018-12-20T10:09:09.691Z,68.23
2018-12-20T10:10:09.905Z,67.76
2018-12-20T10:11:10.122Z,68.23
2018-12-20T10:12:10.345Z,70.79
2018-12-20T10:13:14.512Z,70.99
2018-12-20T10:14:14.484Z,69.94
2018-12-20T10:15:10.927Z,70.13
2018-12-20T10:16:12.986Z,71.66
2018-12-20T10:17:19.697Z,71.37
2018-12-20T10:18:11.591Z,71.56
2018-12-20T10:19:11.762Z,71.37
2018-12-20T10:20:11.974Z,73.08
2018-12-20T10:21:13.987Z,71.75
2018-12-20T10:22:16.013Z,72.70
2018-12-20T10:23:13.990Z,73.84
2018-12-20T10:24:12.724Z,74.51
2018-12-20T10:25:12.827Z,75.93
2018-12-20T10:26:14.997Z,73.65
2018-12-20T10:27:14.991Z,74.60
2018-12-20T10:28:14.199Z,74.03
2018-12-20T10:29:13.541Z,74.12
2018-12-20T10:30:13.747Z,74.69
2018-12-20T10:31:15.491Z,74.12
2018-12-20T10:32:15.982Z,75.17
2018-12-20T10:33:17.691Z,76.12
2018-12-20T10:34:18.310Z,76.78
2018-12-20T10:35:15.998Z,77.45
2018-12-20T10:36:20.698Z,77.83
2018-12-20T10:37:14.900Z,77.92
2018-12-20T10:38:15.163Z,79.44
2018-12-20T10:39:17.026Z,79.73
2018-12-20T10:40:16.980Z,78.78
2018-12-20T10:41:15.559Z,78.91
2018-12-20T10:42:15.821Z,79.77
2018-12-20T10:43:19.529Z,80.21
2018-12-20T10:44:24.021Z,79.54
2018-12-20T10:45:16.247Z,79.77
2018-12-20T10:46:16.343Z,80.24
2018-12-20T10:47:16.595Z,79.86
2018-12-20T10:48:39.485Z,80.72
2018-12-20T10:49:16.900Z,82.24
2018-12-20T10:50:18.996Z,82.05
2018-12-20T10:51:23.315Z,81.67
2018-12-20T10:52:19.557Z,82.62
2018-12-20T10:53:19.491Z,83.10
2018-12-20T10:54:17.815Z,82.77
2018-12-20T10:55:18.051Z,82.49
2018-12-20T10:56:20.003Z,82.96
2018-12-20T10:57:18.448Z,82.10
2018-12-20T10:58:21.504Z,81.92
2018-12-20T10:59:20.482Z,83.00
2018-12-20T11:00:19.063Z,83.39
2018-12-20T11:01:21.000Z,82.15
2018-12-20T11:02:20.435Z,81.67
2018-12-20T11:03:21.508Z,81.58
2018-12-20T11:04:21.501Z,84.62
2018-12-20T11:05:21.490Z,84.24
2018-12-20T11:06:20.073Z,84.24
2018-12-20T11:07:20.289Z,83.95
2018-12-20T11:08:20.519Z,84.43
2018-12-20T11:09:20.732Z,83.86
2018-12-20T11:10:22.489Z,84.24
2018-12-20T11:11:25.029Z,83.95
2018-12-20T11:12:25.959Z,83.10
2018-12-20T11:13:25.039Z,85.47
2018-12-20T11:14:23.492Z,84.72
2018-12-20T11:15:23.487Z,85.86
2018-12-20T11:16:23.481Z,84.14
2018-12-20T11:17:23.999Z,85.19
2018-12-20T11:18:23.994Z,85.57
2018-12-20T11:19:22.317Z,85.57
2018-12-20T11:20:22.524Z,84.91
2018-12-20T11:21:22.750Z,84.91
2018-12-20T11:22:22.875Z,85.10
2018-12-20T11:23:23.078Z,87.19
2018-12-20T11:24:23.298Z,86.99
2018-12-20T11:25:25.487Z,87.09
2018-12-20T11:26:23.702Z,87.66
2018-12-20T11:27:23.904Z,87.95
2018-12-20T11:28:24.136Z,85.66
2018-12-20T11:29:25.361Z,85.86
2018-12-20T11:30:26.002Z,87.95
2018-12-20T11:31:26.496Z,87.66
2018-12-20T11:32:26.496Z,86.90
2018-12-20T11:33:24.821Z,86.90
2018-12-20T11:34:40.985Z,86.90
2018-12-20T11:35:25.214Z,85.86
2018-12-20T11:36:25.421Z,87.66
2018-12-20T11:37:27.493Z,89.56
2018-12-20T11:38:25.823Z,87.85
2018-12-20T11:39:27.994Z,87.81
2018-12-20T11:40:26.196Z,85.34
2018-12-20T11:41:26.417Z,84.52
2018-12-20T11:42:34.483Z,84.91
2018-12-20T11:43:28.491Z,84.24
2018-12-20T11:44:26.948Z,85.19
2018-12-20T11:45:27.187Z,83.19
2018-12-20T11:46:27.273Z,84.52
2018-12-20T11:47:27.533Z,86.52
2018-12-20T11:48:27.696Z,85.57
2018-12-20T11:49:27.915Z,85.38
2018-12-20T11:50:29.987Z,85.76
2018-12-20T11:51:28.321Z,85.57
2018-12-20T11:52:30.491Z,84.24
2018-12-20T11:53:29.703Z,84.72
2018-12-20T11:54:30.503Z,84.91
2018-12-20T11:55:30.995Z,85.24
2018-12-20T11:56:31.005Z,85.76
2018-12-20T11:57:29.336Z,84.52
2018-12-20T11:58:33.503Z,83.10
2018-12-20T11:59:29.727Z,84.62
2018-12-20T12:00:33.501Z,86.52
2018-12-20T12:01:30.107Z,86.14
2018-12-20T12:02:30.311Z,85.57
2018-12-20T12:03:38.633Z,87.28
2018-12-20T12:04:32.506Z,85.38
2018-12-20T12:05:32.502Z,85.76
2018-12-20T12:06:36.500Z,85.19
2018-12-20T12:07:31.073Z,85.38
2018-12-20T12:08:32.303Z,85.53
2018-12-20T12:09:31.529Z,84.05
2018-12-20T12:10:35.490Z,82.53
2018-12-20T12:11:31.821Z,82.91
2018-12-20T12:12:32.023Z,82.91
2018-12-20T12:13:33.987Z,83.10
2018-12-20T12:14:34.007Z,82.43
2018-12-20T12:15:33.606Z,84.24
2018-12-20T12:16:32.831Z,84.43
2018-12-20T12:17:36.037Z,86.61
2018-12-20T12:18:35.001Z,85.10
2018-12-20T12:19:33.325Z,85.57
2018-12-20T12:20:36.522Z,85.57
2018-12-20T12:21:33.787Z,86.24
2018-12-20T12:22:33.874Z,84.52
2018-12-20T12:23:35.996Z,84.52
2018-12-20T12:24:34.195Z,85.10
2018-12-20T12:25:35.985Z,84.72
2018-12-20T12:26:34.563Z,85.76
2018-12-20T12:27:34.763Z,84.24
2018-12-20T12:28:34.967Z,83.39
2018-12-20T12:29:35.208Z,85.10
2018-12-20T12:30:35.379Z,85.95
2018-12-20T12:31:36.634Z,85.00
2018-12-20T12:32:35.717Z,84.43
2018-12-20T12:33:37.490Z,85.66
2018-12-20T12:34:36.072Z,85.10
2018-12-20T12:35:36.266Z,83.86
2018-12-20T12:36:36.478Z,88.33
2018-12-20T12:37:36.679Z,85.76
2018-12-20T12:38:36.883Z,85.86
2018-12-20T12:39:37.101Z,85.57
2018-12-20T12:40:37.306Z,85.76
2018-12-20T12:41:37.529Z,86.14
2018-12-20T12:42:37.734Z,85.19
2018-12-20T12:43:37.946Z,85.66
2018-12-20T12:44:38.166Z,85.76
2018-12-20T12:45:39.989Z,85.81
2018-12-20T12:46:38.561Z,85.95
2018-12-20T12:47:38.768Z,83.95
2018-12-20T12:48:38.983Z,85.86
2018-12-20T12:49:39.190Z,86.05
2018-12-20T12:50:41.006Z,88.42
2018-12-20T12:51:40.585Z,87.52
2018-12-20T12:52:39.790Z,86.95
2018-12-20T12:53:41.491Z,85.81
2018-12-20T12:54:42.010Z,86.14
2018-12-20T12:55:40.316Z,86.61
2018-12-20T12:56:42.509Z,86.24